Time;durP1;ratioP1;P1;durP2;ratioP2;P2;SDS_P1;SDS_P2;PMS_P1;PMS_P2;Temp;Humidity;BMP_temperature;BMP_pressure;BME280_temperature;BME280_humidity;BME280_pressure;Samples;Min_cycle;Max_cycle;Signal;HPM_P1;HPM_P2
2021/09/15 00:01:51;;;;;;;47.72;43.70;;;;;;;15.08;100.00;101198.75;5093687;28;20056;-78
2021/09/15 00:04:18;;;;;;;45.72;41.58;;;;;;;15.12;100.00;101203.41;5095479;28;20040;-78
2021/09/15 00:06:45;;;;;;;45.17;41.42;;;;;;;15.04;100.00;101203.72;5092749;28;20405;-78
2021/09/15 00:09:12;;;;;;;44.30;40.42;;;;;;;15.27;100.00;101200.34;5095454;28;20063;-80
2021/09/15 00:11:39;;;;;;;42.60;38.90;;;;;;;15.32;100.00;101199.69;5095741;28;20048;-79
2021/09/15 00:14:07;;;;;;;45.00;41.15;;;;;;;15.40;100.00;101198.53;5090116;28;20102;-78
2021/09/15 00:16:34;;;;;;;46.45;42.47;;;;;;;15.04;100.00;101200.25;5094454;28;20113;-79
2021/09/15 00:19:01;;;;;;;44.50;40.55;;;;;;;15.17;100.00;101212.63;5094440;28;20044;-77
2021/09/15 00:21:29;;;;;;;45.50;41.47;;;;;;;15.24;100.00;101208.00;5095794;28;20491;-78
2021/09/15 00:23:56;;;;;;;45.17;41.20;;;;;;;15.32;100.00;101197.81;5092912;28;20063;-78
2021/09/15 00:26:23;;;;;;;43.90;39.95;;;;;;;15.27;100.00;101202.22;5094160;28;20056;-78
2021/09/15 00:28:50;;;;;;;43.92;39.55;;;;;;;15.05;100.00;101199.19;5099149;28;20051;-77
2021/09/15 00:31:18;;;;;;;45.33;41.47;;;;;;;15.07;100.00;101197.94;5098882;28;20400;-77
2021/09/15 00:33:44;;;;;;;42.00;38.20;;;;;;;15.08;100.00;101198.75;5089298;28;20048;-79
2021/09/15 00:36:11;;;;;;;43.60;39.90;;;;;;;15.04;100.00;101213.63;5095837;28;20067;-78
2021/09/15 00:38:38;;;;;;;44.00;40.28;;;;;;;14.99;100.00;101205.44;5097229;28;20040;-78
2021/09/15 00:41:05;;;;;;;44.15;40.17;;;;;;;15.04;100.00;101202.91;5098595;28;20071;-78
2021/09/15 00:43:32;;;;;;;44.17;40.58;;;;;;;15.01;100.00;101211.38;5097205;28;20047;-78
2021/09/15 00:45:59;;;;;;;42.95;39.00;;;;;;;14.75;100.00;101207.94;5099620;28;20496;-79
2021/09/15 00:48:27;;;;;;;44.08;40.40;;;;;;;14.90;100.00;101212.94;5088023;28;20044;-79
2021/09/15 00:50:54;;;;;;;44.20;39.72;;;;;;;14.32;100.00;101221.28;5098018;28;20048;-79
2021/09/15 00:53:20;;;;;;;45.83;41.88;;;;;;;14.78;100.00;101212.84;5095384;28;20143;-77
2021/09/15 00:55:47;;;;;;;43.67;39.92;;;;;;;14.75;100.00;101212.47;5097460;28;20075;-78
2021/09/15 00:58:14;;;;;;;44.05;40.28;;;;;;;15.11;100.00;101214.34;5098434;28;20055;-78
2021/09/15 01:00:41;;;;;;;44.63;40.67;;;;;;;15.08;100.00;101218.28;5097527;28;20052;-79
2021/09/15 01:03:08;;;;;;;44.50;40.67;;;;;;;14.92;100.00;101216.22;5098926;28;20113;-79
2021/09/15 01:05:36;;;;;;;46.00;41.97;;;;;;;14.91;100.00;101217.22;5099092;28;20109;-77
2021/09/15 01:08:03;;;;;;;46.00;42.45;;;;;;;15.00;100.00;101220.44;5097158;28;20108;-77
2021/09/15 01:10:30;;;;;;;47.28;43.38;;;;;;;14.97;100.00;101224.34;5092167;28;20045;-77
2021/09/15 01:12:57;;;;;;;44.53;40.28;;;;;;;14.75;100.00;101223.97;5094979;28;20048;-77
2021/09/15 01:15:25;;;;;;;44.83;41.22;;;;;;;14.96;100.00;101229.94;5094716;28;20471;-77
2021/09/15 01:17:52;;;;;;;43.45;39.55;;;;;;;14.84;100.00;101232.53;5097889;28;20130;-78
2021/09/15 01:20:19;;;;;;;46.47;42.40;;;;;;;14.61;100.00;101227.81;5094695;28;20059;-79
2021/09/15 01:22:47;;;;;;;45.50;41.72;;;;;;;14.84;100.00;101235.22;5098407;28;20056;-78
2021/09/15 01:25:14;;;;;;;47.60;43.90;;;;;;;14.88;100.00;101231.84;5096480;28;20044;-78
2021/09/15 01:27:42;;;;;;;53.58;49.20;;;;;;;14.82;100.00;101226.59;5098939;28;20105;-78
2021/09/15 01:30:12;;;;;;;54.13;49.83;;;;;;;14.96;100.00;101228.09;5096731;28;20048;-79
2021/09/15 01:32:39;;;;;;;48.08;44.00;;;;;;;14.87;100.00;101235.56;5100073;28;20476;-79
2021/09/15 01:35:06;;;;;;;48.08;44.00;;;;;;;14.65;100.00;101237.88;5094912;28;20136;-78
2021/09/15 01:37:33;;;;;;;53.67;49.35;;;;;;;14.66;100.00;101227.97;5096342;28;20048;-78
2021/09/15 01:40:01;;;;;;;52.55;48.10;;;;;;;14.28;100.00;101241.44;5096816;28;20105;-78
2021/09/15 01:42:28;;;;;;;51.83;47.33;;;;;;;14.64;100.00;101233.56;5088531;28;20044;-80
2021/09/15 01:44:55;;;;;;;51.67;47.28;;;;;;;14.75;100.00;101229.34;5095980;28;20105;-78
2021/09/15 01:47:22;;;;;;;51.00;46.38;;;;;;;14.59;100.00;101238.75;5096358;28;20121;-79
2021/09/15 01:49:49;;;;;;;50.83;46.55;;;;;;;14.67;100.00;101237.63;5096993;28;20059;-80
2021/09/15 01:52:17;;;;;;;54.13;49.83;;;;;;;14.75;100.00;101241.88;5094509;28;20044;-80
2021/09/15 01:54:44;;;;;;;53.13;48.78;;;;;;;14.60;100.00;101234.22;5098779;28;20485;-78
2021/09/15 01:57:13;;;;;;;54.90;50.72;;;;;;;13.99;100.00;101238.34;5095439;28;20063;-78
2021/09/15 01:59:39;;;;;;;53.10;48.83;;;;;;;14.26;100.00;101247.00;5097018;28;20451;-79
2021/09/15 02:02:10;;;;;;;61.67;56.58;;;;;;;13.65;100.00;101245.75;5177618;22;20508;-78
2021/09/15 02:04:37;;;;;;;63.78;59.25;;;;;;;14.10;100.00;101243.03;5048343;28;20061;-78
2021/09/15 02:07:04;;;;;;;60.92;56.30;;;;;;;14.10;100.00;101242.16;5054165;28;20040;-79
2021/09/15 02:09:31;;;;;;;65.30;60.05;;;;;;;13.88;100.00;101245.19;5053235;28;20056;-79
2021/09/15 02:11:58;;;;;;;60.58;55.80;;;;;;;14.09;100.00;101241.34;5052473;28;20469;-78
2021/09/15 02:14:26;;;;;;;57.67;52.78;;;;;;;13.84;100.00;101240.50;5053648;28;20053;-80
2021/09/15 02:16:53;;;;;;;57.55;53.00;;;;;;;14.03;100.00;101236.88;5053071;28;20056;-78
2021/09/15 02:19:20;;;;;;;54.78;49.70;;;;;;;13.46;100.00;101235.97;5054706;28;20052;-79
2021/09/15 02:21:47;;;;;;;61.92;56.70;;;;;;;12.75;100.00;101242.94;5053177;28;20122;-79
2021/09/15 02:24:15;;;;;;;74.22;68.18;;;;;;;13.54;100.00;101240.25;5053002;28;20052;-79
2021/09/15 02:26:42;;;;;;;72.03;66.47;;;;;;;13.54;100.00;101238.41;5048714;28;20417;-79
2021/09/15 02:29:09;;;;;;;67.68;61.85;;;;;;;12.95;100.00;101237.56;5047455;28;20049;-79
2021/09/15 02:31:37;;;;;;;63.60;58.38;;;;;;;13.38;100.00;101238.91;5051871;28;20543;-80
2021/09/15 02:34:03;;;;;;;70.13;64.97;;;;;;;13.67;100.00;101238.31;5042088;28;20041;-79
2021/09/15 02:36:31;;;;;;;68.55;63.13;;;;;;;13.77;100.00;101232.53;5042518;28;20087;-78
2021/09/15 02:38:58;;;;;;;59.10;54.28;;;;;;;13.15;100.00;101236.69;5045826;28;20283;-78
2021/09/15 02:41:25;;;;;;;69.15;63.80;;;;;;;13.03;100.00;101242.66;5041696;28;20049;-78
2021/09/15 02:43:51;;;;;;;58.25;53.63;;;;;;;13.09;100.00;101249.00;5047129;28;20122;-78
2021/09/15 02:46:18;;;;;;;56.47;51.63;;;;;;;13.12;100.00;101250.44;5048024;28;20139;-79
2021/09/15 02:48:47;;;;;;;56.33;51.70;;;;;;;12.93;100.00;101262.78;5042649;28;20049;-81
2021/09/15 02:51:14;;;;;;;53.38;49.17;;;;;;;13.31;100.00;101254.91;5039739;28;20045;-79
2021/09/15 02:53:40;;;;;;;46.08;42.08;;;;;;;13.42;100.00;101256.13;5049285;28;20060;-79
2021/09/15 02:56:07;;;;;;;49.90;45.95;;;;;;;13.31;100.00;101262.09;5045854;28;20481;-80
2021/09/15 02:58:34;;;;;;;49.80;45.88;;;;;;;13.24;100.00;101264.75;5043833;28;20506;-83
2021/09/15 03:01:01;;;;;;;49.53;45.53;;;;;;;13.17;100.00;101262.13;5040310;28;20049;-79
2021/09/15 03:03:28;;;;;;;52.67;48.58;;;;;;;12.90;100.00;101264.03;5042686;28;20490;-78
2021/09/15 03:05:56;;;;;;;50.67;45.72;;;;;;;13.23;100.00;101263.94;5043363;28;20449;-78
2021/09/15 03:08:23;;;;;;;45.80;42.00;;;;;;;12.84;100.00;101265.66;5037527;28;20042;-77
2021/09/15 03:10:50;;;;;;;59.40;54.50;;;;;;;12.94;100.00;101267.91;5052899;28;20466;-79
2021/09/15 03:13:17;;;;;;;55.83;51.20;;;;;;;12.22;100.00;101274.88;5054207;28;20060;-82
2021/09/15 03:15:44;;;;;;;51.25;46.65;;;;;;;12.15;100.00;101272.22;5052525;28;20049;-79
2021/09/15 03:18:10;;;;;;;52.63;47.65;;;;;;;12.43;100.00;101268.56;5055248;28;20466;-77
2021/09/15 03:20:37;;;;;;;53.63;48.90;;;;;;;12.30;100.00;101272.03;5051314;28;20474;-79
2021/09/15 03:23:05;;;;;;;52.95;47.80;;;;;;;12.61;100.00;101270.59;5053277;28;20481;-79
2021/09/15 03:25:33;;;;;;;50.63;46.05;;;;;;;12.83;100.00;101268.56;5047934;28;20049;-78
2021/09/15 03:28:01;;;;;;;48.00;43.72;;;;;;;12.77;100.00;101270.19;5054484;28;20056;-79
2021/09/15 03:30:28;;;;;;;50.35;45.78;;;;;;;12.79;100.00;101273.47;5051478;28;20738;-77
2021/09/15 03:32:55;;;;;;;49.03;44.70;;;;;;;12.82;100.00;101275.72;5053407;28;20049;-79
2021/09/15 03:35:22;;;;;;;50.13;45.65;;;;;;;12.81;100.00;101283.94;5052035;28;20122;-77
2021/09/15 03:37:48;;;;;;;50.63;45.92;;;;;;;12.11;100.00;101286.97;5053772;28;20118;-78
2021/09/15 03:40:16;;;;;;;51.13;46.28;;;;;;;12.71;100.00;101296.84;5053005;28;20053;-77
2021/09/15 03:42:43;;;;;;;51.72;47.63;;;;;;;12.78;100.00;101295.81;5049108;28;20052;-79
2021/09/15 03:45:11;;;;;;;51.83;47.25;;;;;;;13.26;100.00;101295.56;5056700;28;20091;-79
2021/09/15 03:47:37;;;;;;;50.97;46.05;;;;;;;13.29;100.00;101297.81;5056507;28;20049;-79
2021/09/15 03:50:05;;;;;;;69.43;62.20;;;;;;;13.34;100.00;101299.03;5061391;28;20044;-79
2021/09/15 03:52:32;;;;;;;68.45;57.30;;;;;;;13.45;100.00;101301.88;5068165;28;20382;-78
2021/09/15 03:54:59;;;;;;;69.38;59.72;;;;;;;13.34;100.00;101307.03;5069673;28;20125;-77
2021/09/15 03:57:27;;;;;;;66.28;58.58;;;;;;;13.37;100.00;101298.59;5075882;28;20137;-77
2021/09/15 03:59:54;;;;;;;69.43;60.60;;;;;;;13.39;100.00;101301.91;5078590;28;20041;-79
2021/09/15 04:02:21;;;;;;;44.58;40.50;;;;;;;13.35;100.00;101303.34;5079623;28;20056;-78
2021/09/15 04:04:48;;;;;;;41.78;38.25;;;;;;;12.91;100.00;101297.66;5068530;28;20051;-81
2021/09/15 04:07:15;;;;;;;44.15;39.92;;;;;;;13.22;100.00;101307.66;5077542;28;20056;-77
2021/09/15 04:09:42;;;;;;;43.60;39.45;;;;;;;13.26;100.00;101310.75;5076949;28;20060;-78
2021/09/15 04:12:10;;;;;;;43.30;39.25;;;;;;;13.31;100.00;101307.44;5078169;28;20067;-79
2021/09/15 04:14:38;;;;;;;43.90;39.75;;;;;;;13.18;100.00;101308.28;5076184;28;20048;-79
2021/09/15 04:17:05;;;;;;;43.40;39.40;;;;;;;13.41;100.00;101310.50;5068406;28;20049;-79
2021/09/15 04:19:32;;;;;;;45.83;41.83;;;;;;;13.46;100.00;101306.19;5074276;28;20076;-77
2021/09/15 04:21:59;;;;;;;45.88;42.15;;;;;;;13.45;100.00;101315.22;5075967;28;20230;-78
2021/09/15 04:31:10;;;;;;;50.45;46.28;;;;;;;13.60;100.00;101316.81;5075148;28;20099;-79
2021/09/15 04:32:58;;;;;;;48.08;43.90;;;;;;;13.59;100.00;101315.19;5075976;28;20047;-78
2021/09/15 04:35:25;;;;;;;60.05;54.75;;;;;;;13.85;100.00;101320.38;5070119;28;20389;-77
2021/09/15 04:37:52;;;;;;;56.85;52.30;;;;;;;14.01;100.00;101313.75;5072552;28;20052;-78
2021/09/15 04:40:19;;;;;;;44.53;40.40;;;;;;;14.18;100.00;101316.72;5073749;28;20059;-78
2021/09/15 04:42:46;;;;;;;45.10;41.40;;;;;;;14.30;100.00;101316.84;5068354;28;20052;-78
2021/09/15 04:45:14;;;;;;;46.30;42.38;;;;;;;14.46;100.00;101316.31;5074321;28;20044;-78
2021/09/15 04:47:41;;;;;;;43.63;39.58;;;;;;;14.84;100.00;101316.25;5074536;28;20044;-78
2021/09/15 04:50:08;;;;;;;45.30;41.70;;;;;;;14.96;100.00;101313.69;5076629;28;20044;-79
2021/09/15 04:52:36;;;;;;;43.00;39.55;;;;;;;15.02;100.00;101318.16;5073670;28;20110;-78
2021/09/15 04:55:04;;;;;;;41.65;38.15;;;;;;;15.00;100.00;101309.50;5071959;28;20063;-80
2021/09/15 04:57:30;;;;;;;41.08;37.55;;;;;;;15.04;100.00;101312.59;5074204;28;20113;-79
2021/09/15 04:59:57;;;;;;;41.83;38.28;;;;;;;15.12;100.00;101315.78;5075800;28;20055;-79
2021/09/15 05:02:25;;;;;;;41.58;38.08;;;;;;;15.35;100.00;101309.78;5069186;28;20118;-78
2021/09/15 05:04:52;;;;;;;43.65;40.10;;;;;;;15.42;100.00;101311.56;5072575;28;20110;-79
2021/09/15 05:07:19;;;;;;;40.22;36.80;;;;;;;15.62;100.00;101319.38;5076095;28;20465;-79
2021/09/15 05:09:45;;;;;;;41.65;38.15;;;;;;;15.54;100.00;101320.47;5077222;28;20481;-79
2021/09/15 05:12:12;;;;;;;41.88;38.50;;;;;;;15.66;100.00;101324.03;5075515;28;20534;-79
2021/09/15 05:14:39;;;;;;;47.25;43.45;;;;;;;15.90;100.00;101316.16;5075550;28;20044;-77
2021/09/15 05:17:06;;;;;;;42.22;38.40;;;;;;;15.89;100.00;101318.00;5074855;28;20036;-78
2021/09/15 05:19:34;;;;;;;44.53;40.72;;;;;;;15.77;100.00;101320.63;5075525;28;20109;-79
2021/09/15 05:22:01;;;;;;;40.17;36.58;;;;;;;16.29;100.00;101306.72;5073260;28;20062;-79
2021/09/15 05:24:27;;;;;;;40.15;36.72;;;;;;;15.81;100.00;101315.63;5071868;28;20129;-78
2021/09/15 05:26:54;;;;;;;39.90;36.22;;;;;;;16.13;100.00;101323.47;5074771;28;20048;-78
2021/09/15 05:29:21;;;;;;;39.70;36.42;;;;;;;16.27;100.00;101319.53;5073649;28;20472;-79
2021/09/15 05:31:48;;;;;;;39.22;35.20;;;;;;;16.62;100.00;101313.44;5072900;28;20386;-78
2021/09/15 05:34:15;;;;;;;40.85;37.20;;;;;;;16.53;100.00;101326.38;5074969;28;20106;-78
2021/09/15 05:36:44;;;;;;;40.50;36.70;;;;;;;16.92;100.00;101319.56;5071796;28;20392;-77
2021/09/15 05:39:11;;;;;;;41.13;37.13;;;;;;;16.98;100.00;101317.00;5072539;28;20044;-78
2021/09/15 05:41:38;;;;;;;39.22;35.53;;;;;;;17.06;100.00;101324.66;5074950;28;20052;-78
2021/09/15 05:44:05;;;;;;;41.55;38.03;;;;;;;17.35;100.00;101317.53;5073384;28;20052;-78
2021/09/15 05:46:32;;;;;;;43.53;39.83;;;;;;;16.94;100.00;101324.66;5073977;28;20052;-79
2021/09/15 05:48:59;;;;;;;39.88;36.47;;;;;;;17.18;100.00;101325.47;5073882;28;20060;-79
2021/09/15 05:51:26;;;;;;;41.08;37.33;;;;;;;17.48;100.00;101325.31;5069523;28;20389;-77
2021/09/15 05:53:54;;;;;;;43.83;39.72;;;;;;;17.57;100.00;101323.88;5072324;28;20053;-78
2021/09/15 05:56:21;;;;;;;42.15;38.30;;;;;;;17.70;100.00;101322.81;5066397;28;20400;-78
2021/09/15 05:58:48;;;;;;;41.40;37.38;;;;;;;17.39;100.00;101321.38;5072173;28;20045;-78
2021/09/15 06:01:14;;;;;;;41.80;37.92;;;;;;;17.84;100.00;101334.94;5072134;28;20118;-81
2021/09/15 06:03:41;;;;;;;45.63;41.42;;;;;;;18.23;100.00;101328.94;5067409;28;20057;-79
2021/09/15 06:06:08;;;;;;;44.30;40.20;;;;;;;18.60;100.00;101331.97;5065014;28;20037;-78
2021/09/15 06:08:35;;;;;;;41.78;37.63;;;;;;;18.53;100.00;101331.34;5068887;28;20045;-79
2021/09/15 06:11:03;;;;;;;42.30;38.75;;;;;;;18.80;100.00;101325.34;5072249;28;20526;-77
2021/09/15 06:13:30;;;;;;;40.40;36.70;;;;;;;18.99;100.00;101321.31;5067864;28;20059;-78
2021/09/15 06:15:56;;;;;;;44.75;41.08;;;;;;;19.25;100.00;101330.56;5072332;28;20102;-77
2021/09/15 06:18:23;;;;;;;48.40;43.50;;;;;;;19.29;100.00;101331.69;5068725;28;20052;-81
2021/09/15 06:20:50;;;;;;;43.20;39.80;;;;;;;19.47;100.00;101327.88;5070958;28;20059;-79
2021/09/15 06:23:17;;;;;;;45.78;42.13;;;;;;;19.72;100.00;101327.38;5069654;28;20117;-78
2021/09/15 06:25:44;;;;;;;40.90;37.60;;;;;;;19.97;100.00;101331.44;5072961;28;20045;-78
2021/09/15 06:28:13;;;;;;;42.47;38.88;;;;;;;20.20;100.00;101336.53;5071929;28;20052;-79
2021/09/15 06:30:41;;;;;;;39.85;36.45;;;;;;;20.49;100.00;101325.47;5070324;28;20389;-79
2021/09/15 06:33:08;;;;;;;38.47;34.88;;;;;;;20.69;100.00;101336.44;5063507;28;20140;-78
2021/09/15 06:35:35;;;;;;;41.05;37.40;;;;;;;20.69;100.00;101331.03;5064481;28;20109;-78
2021/09/15 06:38:02;;;;;;;52.58;45.97;;;;;;;21.03;100.00;101330.75;5067037;28;20048;-77
2021/09/15 06:40:29;;;;;;;40.95;37.55;;;;;;;21.18;100.00;101325.44;5068485;28;20059;-77
2021/09/15 06:42:56;;;;;;;41.72;38.00;;;;;;;21.28;100.00;101330.06;5071912;28;20049;-78
2021/09/15 06:45:24;;;;;;;117.68;70.72;;;;;;;21.31;100.00;101332.25;5066914;28;20048;-77
2021/09/15 06:47:51;;;;;;;462.52;226.98;;;;;;;21.92;100.00;101331.69;5072606;28;20056;-79
2021/09/15 06:50:17;;;;;;;71.60;53.95;;;;;;;22.08;100.00;101335.22;5073278;28;20120;-79
2021/09/15 06:52:44;;;;;;;71.20;49.47;;;;;;;22.20;100.00;101333.09;5070703;28;20048;-79
2021/09/15 06:55:12;;;;;;;44.35;40.00;;;;;;;22.44;100.00;101340.72;5071531;28;20117;-78
2021/09/15 06:57:40;;;;;;;42.28;38.10;;;;;;;22.55;100.00;101335.03;5071944;28;20056;-77
2021/09/15 07:00:08;;;;;;;41.33;36.70;;;;;;;22.89;100.00;101339.06;5068632;28;20090;-78
2021/09/15 07:02:37;;;;;;;36.88;33.15;;;;;;;23.03;100.00;101332.84;5056482;28;20498;-79
2021/09/15 07:05:04;;;;;;;35.85;32.95;;;;;;;23.25;100.00;101337.13;5051312;28;20045;-79
2021/09/15 07:07:31;;;;;;;43.08;36.47;;;;;;;23.52;100.00;101342.16;5051353;28;20064;-78
2021/09/15 07:09:58;;;;;;;39.92;36.70;;;;;;;23.46;100.00;101344.09;5053259;28;20057;-78
2021/09/15 07:12:24;;;;;;;41.70;38.20;;;;;;;23.51;100.00;101340.53;5051805;28;20053;-78
2021/09/15 07:14:52;;;;;;;42.72;39.15;;;;;;;23.70;100.00;101344.28;5051178;28;20859;-77
2021/09/15 07:17:19;;;;;;;40.97;37.03;;;;;;;23.50;100.00;101347.84;5051785;28;20106;-78
2021/09/15 07:19:47;;;;;;;40.90;37.35;;;;;;;23.61;100.00;101339.69;5054286;28;20048;-79
2021/09/15 07:22:14;;;;;;;39.75;36.20;;;;;;;23.84;100.00;101347.19;5050870;28;20045;-78
2021/09/15 07:24:41;;;;;;;44.78;40.47;;;;;;;24.23;100.00;101344.50;5052013;28;20053;-78
2021/09/15 07:27:08;;;;;;;41.17;38.03;;;;;;;24.38;100.00;101343.56;5050942;28;20037;-78
2021/09/15 07:29:35;;;;;;;42.97;39.25;;;;;;;24.38;100.00;101340.03;5054514;28;20065;-79
2021/09/15 07:32:02;;;;;;;40.67;37.25;;;;;;;24.53;100.00;101341.88;5051058;28;20049;-80
2021/09/15 07:34:29;;;;;;;40.50;37.03;;;;;;;24.19;100.00;101348.06;5050493;28;20049;-77
2021/09/15 07:36:57;;;;;;;36.33;33.33;;;;;;;24.32;100.00;101350.13;5050075;28;20056;-80
2021/09/15 07:39:24;;;;;;;36.03;32.78;;;;;;;24.57;100.00;101340.19;5053191;28;20122;-79
2021/09/15 07:41:51;;;;;;;32.70;29.65;;;;;;;24.60;100.00;101342.34;5049669;28;20072;-78
2021/09/15 07:44:18;;;;;;;36.30;33.10;;;;;;;24.56;100.00;101344.81;5055497;28;20048;-79
2021/09/15 07:46:44;;;;;;;38.03;35.03;;;;;;;24.53;100.00;101336.44;5052000;28;20041;-78
2021/09/15 07:49:11;;;;;;;38.75;35.95;;;;;;;24.86;100.00;101338.28;5052869;28;20068;-77
2021/09/15 07:51:38;;;;;;;40.05;37.15;;;;;;;24.89;100.00;101329.56;5050685;28;20059;-78
2021/09/15 07:54:06;;;;;;;33.80;31.38;;;;;;;24.32;94.34;101335.75;5050972;28;20448;-78
2021/09/15 07:56:33;;;;;;;38.53;35.65;;;;;;;24.83;98.84;101329.91;5053433;28;20484;-78
2021/09/15 07:59:00;;;;;;;42.28;39.17;;;;;;;25.18;100.00;101327.97;5053837;28;20049;-79
2021/09/15 08:01:27;;;;;;;44.83;41.13;;;;;;;26.16;90.38;101323.66;5058693;28;20053;-82
2021/09/15 08:03:53;;;;;;;47.13;43.92;;;;;;;25.90;96.18;101333.28;5066865;28;20048;-79
2021/09/15 08:06:20;;;;;;;43.45;39.92;;;;;;;25.93;98.74;101329.97;5068316;28;20044;-79
2021/09/15 08:08:47;;;;;;;44.13;40.85;;;;;;;25.80;82.60;101331.50;5071653;28;20048;-78
2021/09/15 08:11:16;;;;;;;45.13;41.60;;;;;;;26.41;98.46;101327.06;5071290;28;20056;-79
2021/09/15 08:13:43;;;;;;;44.00;40.58;;;;;;;26.75;86.61;101325.97;5068361;28;20056;-79
2021/09/15 08:16:11;;;;;;;49.33;45.85;;;;;;;26.39;89.90;101321.94;5061830;28;20064;-78
2021/09/15 08:18:38;;;;;;;41.60;38.38;;;;;;;27.45;84.62;101320.28;5068168;28;20072;-77
2021/09/15 08:21:06;;;;;;;37.17;34.08;;;;;;;26.75;88.72;101323.25;5068030;28;20535;-78
2021/09/15 08:23:33;;;;;;;36.20;33.25;;;;;;;26.67;83.47;101316.59;5063607;28;20481;-77
2021/09/15 08:26:00;;;;;;;36.85;34.15;;;;;;;25.90;86.23;101315.09;5065649;28;20105;-79
2021/09/15 08:28:29;;;;;;;35.60;33.00;;;;;;;26.79;88.40;101316.09;5072647;28;20059;-79
2021/09/15 08:30:55;;;;;;;37.15;34.15;;;;;;;26.90;86.70;101307.44;5068993;28;20052;-77
2021/09/15 08:33:22;;;;;;;36.70;33.47;;;;;;;27.07;83.24;101301.38;5060339;28;20040;-78
2021/09/15 08:35:49;;;;;;;35.08;31.98;;;;;;;27.09;84.77;101306.53;5066101;28;20048;-80
2021/09/15 08:38:16;;;;;;;36.67;33.95;;;;;;;25.84;74.50;101307.25;5071161;28;20065;-79
2021/09/15 08:40:43;;;;;;;36.70;33.42;;;;;;;26.47;86.39;101304.09;5061808;28;20040;-79
2021/09/15 08:43:10;;;;;;;34.47;31.77;;;;;;;28.34;71.21;101296.94;5065524;28;20143;-78
2021/09/15 08:45:38;;;;;;;35.15;32.00;;;;;;;28.21;65.64;101303.28;5065911;28;20454;-79
2021/09/15 08:48:06;;;;;;;37.53;34.85;;;;;;;28.07;70.17;101295.16;5071761;28;20105;-80
2021/09/15 08:50:33;;;;;;;40.50;37.80;;;;;;;28.39;68.31;101302.28;5073394;28;20052;-79
2021/09/15 08:53:00;;;;;;;37.55;34.75;;;;;;;28.44;64.46;101298.63;5067728;28;20049;-78
2021/09/15 08:55:27;;;;;;;34.55;31.77;;;;;;;27.95;61.20;101303.09;5074623;28;20056;-79
2021/09/15 08:57:54;;;;;;;33.67;31.05;;;;;;;28.15;66.52;101297.16;5071366;28;20045;-79
2021/09/15 09:00:21;;;;;;;34.72;31.70;;;;;;;27.48;73.79;101289.66;5074060;28;20683;-82
2021/09/15 09:02:53;;;;;;;36.15;33.20;;;;;;;29.39;64.40;101288.09;5076687;28;20485;-78
2021/09/15 09:05:20;;;;;;;35.83;33.03;;;;;;;28.94;63.56;101295.66;5074977;28;20135;-78
2021/09/15 09:07:47;;;;;;;33.95;31.38;;;;;;;28.42;64.01;101292.69;5074312;28;20064;-79
2021/09/15 09:10:15;;;;;;;32.35;29.75;;;;;;;29.78;61.61;101286.41;5077362;28;20048;-79
2021/09/15 09:12:45;;;;;;;33.40;30.80;;;;;;;30.70;56.45;101286.06;5073199;28;20048;-79
2021/09/15 09:15:17;;;;;;;34.33;31.50;;;;;;;30.96;56.85;101285.19;5066367;28;20453;-77
2021/09/15 09:17:45;;;;;;;36.45;33.70;;;;;;;30.82;55.09;101279.13;5066400;28;20052;-79
2021/09/15 09:20:17;;;;;;;37.35;34.25;;;;;;;29.78;53.74;101283.66;5069730;28;20060;-79
2021/09/15 09:23:01;;;;;;;37.40;34.10;;;;;;;30.28;57.50;101272.16;5067153;28;20055;-79
2021/09/15 09:25:30;;;;;;;38.15;35.03;;;;;;;31.06;56.96;101279.31;5067315;28;20040;-78
2021/09/15 09:27:58;;;;;;;42.08;38.90;;;;;;;30.30;50.27;101269.13;5068088;28;20082;-79
2021/09/15 09:30:36;;;;;;;39.58;36.42;;;;;;;29.01;57.57;101268.66;5070860;28;20047;-78
2021/09/15 09:33:03;;;;;;;40.75;37.40;;;;;;;30.21;50.75;101266.41;5074497;28;20048;-79
2021/09/15 09:35:43;;;;;;;40.22;36.95;;;;;;;28.85;62.24;101271.03;5064116;28;20052;-79
2021/09/15 09:38:25;;;;;;;38.63;35.60;;;;;;;28.91;59.45;101256.09;5071425;28;20045;-78
2021/09/15 09:41:08;;;;;;;38.38;35.33;;;;;;;30.91;57.13;101258.75;5073354;28;20052;-77
2021/09/15 09:43:36;;;;;;;38.65;35.05;;;;;;;29.81;55.22;101260.31;5073058;28;20052;-78
2021/09/15 09:46:04;;;;;;;36.55;33.50;;;;;;;30.48;54.53;101254.22;5069961;28;20055;-80
2021/09/15 09:48:36;;;;;;;35.55;32.67;;;;;;;30.83;54.25;101250.56;5070577;28;20049;-78
2021/09/15 09:51:21;;;;;;;36.40;33.25;;;;;;;30.47;51.36;101254.53;5069595;28;20060;-78
2021/09/15 09:53:49;;;;;;;34.25;31.25;;;;;;;30.37;49.34;101263.13;5067995;28;20159;-79
2021/09/15 09:56:16;;;;;;;36.95;34.08;;;;;;;30.31;44.44;101251.53;5074124;28;20041;-78
2021/09/15 09:58:45;;;;;;;39.38;35.38;;;;;;;30.37;49.75;101250.22;5074038;28;20382;-79
2021/09/15 10:01:16;;;;;;;40.78;37.55;;;;;;;29.60;52.95;101241.75;5071409;28;20560;-80
2021/09/15 10:03:44;;;;;;;38.17;34.67;;;;;;;31.58;50.37;101239.78;5070086;28;20580;-78
2021/09/15 10:06:12;;;;;;;35.60;32.60;;;;;;;30.69;48.20;101248.03;5068609;28;20099;-80
2021/09/15 10:08:40;;;;;;;35.63;32.92;;;;;;;29.13;52.20;101248.94;5071192;28;20493;-78
2021/09/15 10:11:07;;;;;;;33.70;31.30;;;;;;;30.26;50.57;101241.56;5073472;28;20052;-77
2021/09/15 10:13:34;;;;;;;32.45;29.85;;;;;;;29.48;55.13;101249.81;5071190;28;20045;-78
2021/09/15 10:16:05;;;;;;;33.13;30.65;;;;;;;31.21;52.80;101247.75;5073954;28;20427;-79
2021/09/15 10:18:32;;;;;;;35.85;33.20;;;;;;;30.75;49.23;101235.75;5071008;28;20045;-78
2021/09/15 10:21:00;;;;;;;38.00;34.58;;;;;;;30.69;51.73;101235.13;5070423;28;20048;-78
2021/09/15 10:23:38;;;;;;;34.20;31.40;;;;;;;30.23;54.88;101238.66;5073165;28;20484;-79
2021/09/15 10:26:29;;;;;;;35.63;33.08;;;;;;;30.48;50.22;101226.84;5070158;28;20059;-78
2021/09/15 10:29:19;;;;;;;38.03;34.87;;;;;;;30.29;50.94;101232.72;5066413;28;20447;-83
2021/09/15 10:31:51;;;;;;;34.65;31.95;;;;;;;29.73;53.49;101231.81;5073096;28;20049;-80
2021/09/15 10:34:53;;;;;;;36.22;33.30;;;;;;;31.34;52.67;101229.44;5057435;28;20057;-79
2021/09/15 10:37:49;;;;;;;37.38;34.33;;;;;;;31.49;45.71;101221.41;5062849;28;20067;-78
2021/09/15 10:40:28;;;;;;;35.65;32.83;;;;;;;28.43;48.53;101228.75;5038305;28;20072;-79
2021/09/15 10:42:55;;;;;;;34.30;31.40;;;;;;;30.29;50.33;101218.22;5067981;28;20440;-78
2021/09/15 10:45:25;;;;;;;35.85;32.45;;;;;;;30.88;49.22;101218.28;5073698;28;20113;-78
2021/09/15 10:47:54;;;;;;;33.97;30.90;;;;;;;30.58;48.23;101209.22;5071889;28;20076;-77
2021/09/15 10:50:53;;;;;;;34.65;31.90;;;;;;;31.14;49.56;101207.16;5072338;28;20071;-78
2021/09/15 10:53:22;;;;;;;30.70;28.02;;;;;;;30.35;44.57;101209.47;5074230;28;20091;-78
2021/09/15 10:55:57;;;;;;;32.90;30.15;;;;;;;31.44;46.82;101205.19;5070077;28;20455;-78
2021/09/15 10:58:27;;;;;;;33.80;30.95;;;;;;;31.44;46.67;101194.19;5073931;28;20049;-79
2021/09/15 11:00:55;;;;;;;32.17;29.50;;;;;;;31.30;48.14;101192.84;5073248;28;20055;-77
2021/09/15 11:03:25;;;;;;;36.35;33.38;;;;;;;30.67;48.49;101190.78;5062647;28;20052;-77
2021/09/15 11:05:52;;;;;;;38.65;35.78;;;;;;;31.44;45.27;101196.16;5069792;28;20044;-80
2021/09/15 11:08:34;;;;;;;42.00;38.97;;;;;;;31.98;44.35;101192.56;5071774;28;20040;-77
2021/09/15 11:11:03;;;;;;;35.72;32.90;;;;;;;31.90;47.94;101184.09;5068313;28;20148;-79
2021/09/15 11:13:50;;;;;;;38.90;35.67;;;;;;;32.30;46.05;101180.72;5074447;28;20053;-78
2021/09/15 11:16:32;;;;;;;35.53;32.55;;;;;;;31.67;44.05;101169.91;5063089;28;20064;-78